sensor_id;sensor_type;location;lat;lon;timestamp;pressure;altitude;pressure_sealevel;temperature;humidity
68994;BME280;56054;50.968;5.816;2023-07-09T00:02:11;100901.22;;;25.63;72.45
68994;BME280;56054;50.968;5.816;2023-07-09T00:05:18;100894.09;;;25.62;73.56
68994;BME280;56054;50.968;5.816;2023-07-09T00:08:29;100900.28;;;25.55;73.96
68994;BME280;56054;50.968;5.816;2023-07-09T00:11:37;100889.63;;;25.49;73.26
68994;BME280;56054;50.968;5.816;2023-07-09T00:14:45;100889.59;;;25.43;73.67
68994;BME280;56054;50.968;5.816;2023-07-09T00:17:52;100893.13;;;25.39;75.02
68994;BME280;56054;50.968;5.816;2023-07-09T00:20:59;100898.41;;;25.27;74.90
68994;BME280;56054;50.968;5.816;2023-07-09T00:24:06;100902.78;;;25.20;74.30
68994;BME280;56054;50.968;5.816;2023-07-09T00:27:16;100907.19;;;25.18;74.98
68994;BME280;56054;50.968;5.816;2023-07-09T00:30:24;100907.84;;;24.86;77.67
68994;BME280;56054;50.968;5.816;2023-07-09T00:33:31;100912.47;;;25.15;76.13
68994;BME280;56054;50.968;5.816;2023-07-09T00:36:38;100899.94;;;24.97;77.31
68994;BME280;56054;50.968;5.816;2023-07-09T00:39:46;100908.00;;;25.11;76.61
68994;BME280;56054;50.968;5.816;2023-07-09T00:42:54;100913.28;;;25.03;76.89
68994;BME280;56054;50.968;5.816;2023-07-09T00:49:30;100910.56;;;24.97;77.78
68994;BME280;56054;50.968;5.816;2023-07-09T00:52:50;100905.22;;;24.91;78.04
68994;BME280;56054;50.968;5.816;2023-07-09T00:56:05;100904.28;;;24.86;77.69
68994;BME280;56054;50.968;5.816;2023-07-09T00:59:15;100903.38;;;24.81;78.80
68994;BME280;56054;50.968;5.816;2023-07-09T01:02:25;100919.13;;;24.56;80.02
68994;BME280;56054;50.968;5.816;2023-07-09T01:05:32;100910.97;;;24.42;80.85
68994;BME280;56054;50.968;5.816;2023-07-09T01:08:46;100909.34;;;24.55;80.86
68994;BME280;56054;50.968;5.816;2023-07-09T01:11:55;100910.06;;;24.37;81.39
68994;BME280;56054;50.968;5.816;2023-07-09T01:15:02;100912.63;;;24.26;81.83
68994;BME280;56054;50.968;5.816;2023-07-09T01:18:09;100912.38;;;24.03;83.40
68994;BME280;56054;50.968;5.816;2023-07-09T01:21:16;100915.22;;;24.23;82.39
68994;BME280;56054;50.968;5.816;2023-07-09T01:27:55;100917.81;;;24.19;81.84
68994;BME280;56054;50.968;5.816;2023-07-09T01:31:02;100914.25;;;24.13;82.79
68994;BME280;56054;50.968;5.816;2023-07-09T01:34:10;100912.63;;;24.26;81.77
68994;BME280;56054;50.968;5.816;2023-07-09T01:37:19;100907.34;;;24.32;82.01
68994;BME280;56054;50.968;5.816;2023-07-09T01:40:29;100904.75;;;24.40;80.54
68994;BME280;56054;50.968;5.816;2023-07-09T01:43:36;100911.94;;;24.47;79.89
68994;BME280;56054;50.968;5.816;2023-07-09T01:46:43;100902.16;;;24.45;80.55
68994;BME280;56054;50.968;5.816;2023-07-09T01:49:51;100904.69;;;24.32;81.41
68994;BME280;56054;50.968;5.816;2023-07-09T01:52:58;100902.75;;;24.16;82.43
68994;BME280;56054;50.968;5.816;2023-07-09T01:56:06;100904.59;;;24.23;81.96
68994;BME280;56054;50.968;5.816;2023-07-09T01:59:14;100907.25;;;24.22;81.57
68994;BME280;56054;50.968;5.816;2023-07-09T02:02:22;100908.13;;;24.19;82.27
68994;BME280;56054;50.968;5.816;2023-07-09T02:05:31;100899.38;;;24.31;80.64
68994;BME280;56054;50.968;5.816;2023-07-09T02:08:39;100902.00;;;24.31;81.20
68994;BME280;56054;50.968;5.816;2023-07-09T02:11:46;100904.69;;;24.29;81.11
68994;BME280;56054;50.968;5.816;2023-07-09T02:14:53;100902.00;;;24.28;81.38
68994;BME280;56054;50.968;5.816;2023-07-09T02:18:00;100913.47;;;24.25;80.77
68994;BME280;56054;50.968;5.816;2023-07-09T02:21:07;100906.38;;;24.23;81.18
68994;BME280;56054;50.968;5.816;2023-07-09T02:24:14;100905.53;;;24.27;82.25
68994;BME280;56054;50.968;5.816;2023-07-09T02:27:21;100903.56;;;24.09;82.04
68994;BME280;56054;50.968;5.816;2023-07-09T02:30:28;100903.63;;;24.12;82.12
68994;BME280;56054;50.968;5.816;2023-07-09T02:33:35;100904.38;;;24.02;83.25
68994;BME280;56054;50.968;5.816;2023-07-09T02:36:42;100908.69;;;23.90;83.75
68994;BME280;56054;50.968;5.816;2023-07-09T02:39:49;100912.94;;;23.76;84.46
68994;BME280;56054;50.968;5.816;2023-07-09T02:42:56;100920.69;;;23.62;86.23
68994;BME280;56054;50.968;5.816;2023-07-09T02:46:03;100922.75;;;23.85;83.71
68994;BME280;56054;50.968;5.816;2023-07-09T02:49:11;100920.22;;;23.94;82.97
68994;BME280;56054;50.968;5.816;2023-07-09T02:52:19;100929.03;;;23.91;82.59
68994;BME280;56054;50.968;5.816;2023-07-09T02:55:26;100923.72;;;23.91;82.53
68994;BME280;56054;50.968;5.816;2023-07-09T02:58:33;100926.28;;;23.81;84.55
68994;BME280;56054;50.968;5.816;2023-07-09T03:01:40;100919.28;;;23.87;83.29
68994;BME280;56054;50.968;5.816;2023-07-09T03:04:47;100921.97;;;23.90;83.44
68994;BME280;56054;50.968;5.816;2023-07-09T03:07:54;100917.44;;;23.85;84.18
68994;BME280;56054;50.968;5.816;2023-07-09T03:11:09;100917.22;;;23.66;84.74
68994;BME280;56054;50.968;5.816;2023-07-09T03:14:17;100922.50;;;23.65;84.51
68994;BME280;56054;50.968;5.816;2023-07-09T03:17:24;100920.31;;;23.32;86.09
68994;BME280;56054;50.968;5.816;2023-07-09T03:20:31;100928.19;;;23.27;85.38
68994;BME280;56054;50.968;5.816;2023-07-09T03:23:39;100935.22;;;23.25;85.95
68994;BME280;56054;50.968;5.816;2023-07-09T03:26:46;100921.03;;;23.23;86.91
68994;BME280;56054;50.968;5.816;2023-07-09T03:29:54;100933.38;;;23.21;86.72
68994;BME280;56054;50.968;5.816;2023-07-09T03:33:01;100920.31;;;23.32;85.51
68994;BME280;56054;50.968;5.816;2023-07-09T03:36:08;100923.09;;;23.42;84.79
68994;BME280;56054;50.968;5.816;2023-07-09T03:39:15;100929.91;;;23.25;86.60
68994;BME280;56054;50.968;5.816;2023-07-09T03:42:22;100920.31;;;23.33;85.19
68994;BME280;56054;50.968;5.816;2023-07-09T03:45:29;100916.00;;;23.43;85.41
68994;BME280;56054;50.968;5.816;2023-07-09T03:48:36;100918.44;;;23.26;86.24
68994;BME280;56054;50.968;5.816;2023-07-09T03:51:43;100928.25;;;23.33;86.09
68994;BME280;56054;50.968;5.816;2023-07-09T03:54:50;100921.16;;;23.31;85.49
68994;BME280;56054;50.968;5.816;2023-07-09T03:57:57;100931.72;;;23.27;86.24
68994;BME280;56054;50.968;5.816;2023-07-09T04:01:05;100931.78;;;23.32;85.43
68994;BME280;56054;50.968;5.816;2023-07-09T04:04:13;100932.72;;;23.36;84.65
68994;BME280;56054;50.968;5.816;2023-07-09T04:07:20;100936.97;;;23.23;86.54
68994;BME280;56054;50.968;5.816;2023-07-09T04:10:27;100937.91;;;23.28;86.09
68994;BME280;56054;50.968;5.816;2023-07-09T04:13:36;100932.78;;;23.39;84.44
68994;BME280;56054;50.968;5.816;2023-07-09T04:16:44;100934.59;;;23.41;85.30
68994;BME280;56054;50.968;5.816;2023-07-09T04:19:51;100939.75;;;23.32;85.75
68994;BME280;56054;50.968;5.816;2023-07-09T04:22:58;100927.41;;;23.34;85.92
68994;BME280;56054;50.968;5.816;2023-07-09T04:26:05;100936.03;;;23.21;86.62
68994;BME280;56054;50.968;5.816;2023-07-09T04:29:12;100931.81;;;23.35;85.41
68994;BME280;56054;50.968;5.816;2023-07-09T04:32:20;100935.44;;;23.39;85.35
68994;BME280;56054;50.968;5.816;2023-07-09T04:35:28;100933.66;;;23.39;85.08
68994;BME280;56054;50.968;5.816;2023-07-09T04:38:35;100938.75;;;23.25;85.95
68994;BME280;56054;50.968;5.816;2023-07-09T04:41:42;100928.25;;;23.32;85.26
68994;BME280;56054;50.968;5.816;2023-07-09T04:44:49;100928.31;;;23.36;85.37
68994;BME280;56054;50.968;5.816;2023-07-09T04:47:56;100925.81;;;23.47;84.83
68994;BME280;56054;50.968;5.816;2023-07-09T04:51:03;100916.00;;;23.41;85.02
68994;BME280;56054;50.968;5.816;2023-07-09T04:54:10;100920.47;;;23.45;85.00
68994;BME280;56054;50.968;5.816;2023-07-09T04:57:17;100925.91;;;23.55;84.23
68994;BME280;56054;50.968;5.816;2023-07-09T05:00:24;100920.66;;;23.59;84.61
68994;BME280;56054;50.968;5.816;2023-07-09T05:03:31;100916.09;;;23.46;85.21
68994;BME280;56054;50.968;5.816;2023-07-09T05:06:38;100916.22;;;23.57;84.32
68994;BME280;56054;50.968;5.816;2023-07-09T05:09:45;100917.09;;;23.57;84.02
68994;BME280;56054;50.968;5.816;2023-07-09T05:12:54;100921.66;;;23.69;82.94
68994;BME280;56054;50.968;5.816;2023-07-09T05:16:01;100910.13;;;23.67;82.65
68994;BME280;56054;50.968;5.816;2023-07-09T05:19:08;100917.28;;;23.72;83.16
68994;BME280;56054;50.968;5.816;2023-07-09T05:22:15;100914.78;;;23.80;81.51
68994;BME280;56054;50.968;5.816;2023-07-09T05:25:22;100913.94;;;23.86;80.73
68994;BME280;56054;50.968;5.816;2023-07-09T05:28:29;100910.53;;;23.99;80.77
68994;BME280;56054;50.968;5.816;2023-07-09T05:31:37;100917.72;;;24.08;79.90
68994;BME280;56054;50.968;5.816;2023-07-09T05:34:44;100912.53;;;24.17;79.80
68994;BME280;56054;50.968;5.816;2023-07-09T05:37:54;100914.31;;;24.21;79.25
68994;BME280;56054;50.968;5.816;2023-07-09T05:41:02;100906.47;;;24.33;79.85
68994;BME280;56054;50.968;5.816;2023-07-09T05:44:09;100909.22;;;24.41;78.21
68994;BME280;56054;50.968;5.816;2023-07-09T05:47:16;100912.91;;;24.54;78.38
68994;BME280;56054;50.968;5.816;2023-07-09T05:50:23;100907.72;;;24.68;76.85
68994;BME280;56054;50.968;5.816;2023-07-09T05:53:30;100913.09;;;24.78;77.01
68994;BME280;56054;50.968;5.816;2023-07-09T05:56:37;100925.53;;;24.84;76.86
68994;BME280;56054;50.968;5.816;2023-07-09T05:59:44;100914.97;;;24.93;75.75
68994;BME280;56054;50.968;5.816;2023-07-09T06:02:51;100919.50;;;25.05;74.87
68994;BME280;56054;50.968;5.816;2023-07-09T06:05:58;100922.28;;;25.19;74.32
68994;BME280;56054;50.968;5.816;2023-07-09T06:09:05;100915.19;;;25.21;74.97
68994;BME280;56054;50.968;5.816;2023-07-09T06:12:12;100928.56;;;25.32;74.08
68994;BME280;56054;50.968;5.816;2023-07-09T06:15:19;100934.84;;;25.49;74.13
68994;BME280;56054;50.968;5.816;2023-07-09T06:18:26;100923.38;;;25.53;73.09
68994;BME280;56054;50.968;5.816;2023-07-09T06:21:41;100934.06;;;25.75;71.66
68994;BME280;56054;50.968;5.816;2023-07-09T06:24:51;100933.28;;;25.88;71.27
68994;BME280;56054;50.968;5.816;2023-07-09T06:27:58;100935.06;;;25.94;70.11
68994;BME280;56054;50.968;5.816;2023-07-09T06:31:05;100931.56;;;26.13;68.74
68994;BME280;56054;50.968;5.816;2023-07-09T06:34:12;100934.28;;;26.24;70.47
68994;BME280;56054;50.968;5.816;2023-07-09T06:37:19;100938.72;;;26.33;69.04
68994;BME280;56054;50.968;5.816;2023-07-09T06:40:26;100939.63;;;26.48;69.22
68994;BME280;56054;50.968;5.816;2023-07-09T06:43:34;100945.88;;;26.57;66.21
68994;BME280;56054;50.968;5.816;2023-07-09T06:46:41;100952.13;;;26.80;65.70
68994;BME280;56054;50.968;5.816;2023-07-09T06:49:48;100953.00;;;26.88;65.25
68994;BME280;56054;50.968;5.816;2023-07-09T06:52:55;100942.34;;;26.95;65.15
68994;BME280;56054;50.968;5.816;2023-07-09T06:56:02;100951.22;;;27.23;64.91
68994;BME280;56054;50.968;5.816;2023-07-09T06:59:10;100947.63;;;27.24;63.60
68994;BME280;56054;50.968;5.816;2023-07-09T07:02:18;100948.53;;;27.29;63.24
68994;BME280;56054;50.968;5.816;2023-07-09T07:05:25;100936.91;;;27.50;62.81
68994;BME280;56054;50.968;5.816;2023-07-09T07:08:35;100943.06;;;27.67;62.35
68994;BME280;56054;50.968;5.816;2023-07-09T07:11:42;100940.38;;;27.78;61.63
68994;BME280;56054;50.968;5.816;2023-07-09T07:14:49;100943.88;;;27.89;60.63
68994;BME280;56054;50.968;5.816;2023-07-09T07:17:56;100944.75;;;28.02;60.17
68994;BME280;56054;50.968;5.816;2023-07-09T07:21:03;100945.56;;;28.15;59.31
68994;BME280;56054;50.968;5.816;2023-07-09T07:24:11;100949.06;;;28.23;58.47
68994;BME280;56054;50.968;5.816;2023-07-09T07:27:19;100933.78;;;28.42;58.51
68994;BME280;56054;50.968;5.816;2023-07-09T07:30:26;100939.06;;;28.53;57.85
68994;BME280;56054;50.968;5.816;2023-07-09T07:33:33;100940.66;;;28.77;58.40
68994;BME280;56054;50.968;5.816;2023-07-09T07:36:40;100931.72;;;28.81;58.01
68994;BME280;56054;50.968;5.816;2023-07-09T07:39:48;100927.13;;;28.95;58.03
68994;BME280;56054;50.968;5.816;2023-07-09T07:42:55;100936.84;;;29.06;57.19
68994;BME280;56054;50.968;5.816;2023-07-09T07:46:02;100945.66;;;29.20;56.24
68994;BME280;56054;50.968;5.816;2023-07-09T07:49:09;100946.31;;;29.42;56.57
68994;BME280;56054;50.968;5.816;2023-07-09T07:52:16;100941.59;;;29.64;55.91
68994;BME280;56054;50.968;5.816;2023-07-09T07:55:23;100947.59;;;29.84;56.27
68994;BME280;56054;50.968;5.816;2023-07-09T07:58:31;100945.66;;;29.97;55.72
68994;BME280;56054;50.968;5.816;2023-07-09T08:01:38;100943.69;;;30.10;54.63
68994;BME280;56054;50.968;5.816;2023-07-09T08:04:45;100945.19;;;30.31;53.09
68994;BME280;56054;50.968;5.816;2023-07-09T08:07:52;100943.28;;;30.39;51.75
68994;BME280;56054;50.968;5.816;2023-07-09T08:11:04;100938.56;;;30.55;51.33
68994;BME280;56054;50.968;5.816;2023-07-09T08:14:11;100934.69;;;30.73;50.36
68994;BME280;56054;50.968;5.816;2023-07-09T08:17:18;100934.88;;;30.62;49.67
68994;BME280;56054;50.968;5.816;2023-07-09T08:20:25;100934.63;;;30.78;49.76
68994;BME280;56054;50.968;5.816;2023-07-09T08:23:32;100933.38;;;30.99;47.80
68994;BME280;56054;50.968;5.816;2023-07-09T08:26:39;100917.69;;;31.24;49.67
68994;BME280;56054;50.968;5.816;2023-07-09T08:29:46;100922.84;;;31.36;48.66
68994;BME280;56054;50.968;5.816;2023-07-09T08:32:53;100918.38;;;31.33;47.82
68994;BME280;56054;50.968;5.816;2023-07-09T08:36:00;100921.91;;;31.37;49.41
68994;BME280;56054;50.968;5.816;2023-07-09T08:39:07;100911.75;;;31.54;47.12
68994;BME280;56054;50.968;5.816;2023-07-09T08:42:18;100917.19;;;31.51;46.35
68994;BME280;56054;50.968;5.816;2023-07-09T08:45:48;100906.28;;;31.58;46.49
68994;BME280;56054;50.968;5.816;2023-07-09T08:48:58;100906.63;;;31.84;47.71
68994;BME280;56054;50.968;5.816;2023-07-09T08:52:36;100906.00;;;31.73;45.16
68994;BME280;56054;50.968;5.816;2023-07-09T08:55:45;100906.28;;;32.01;47.45
68994;BME280;56054;50.968;5.816;2023-07-09T08:58:55;100899.88;;;32.07;46.42
68994;BME280;56054;50.968;5.816;2023-07-09T09:02:03;100897.97;;;32.12;46.94
68994;BME280;56054;50.968;5.816;2023-07-09T09:05:17;100900.81;;;32.04;46.46
68994;BME280;56054;50.968;5.816;2023-07-09T09:08:37;100892.84;;;32.38;45.45
68994;BME280;56054;50.968;5.816;2023-07-09T09:11:49;100899.78;;;32.47;45.02
68994;BME280;56054;50.968;5.816;2023-07-09T09:15:03;100912.19;;;32.56;45.92
68994;BME280;56054;50.968;5.816;2023-07-09T09:18:27;100916.72;;;32.54;45.23
68994;BME280;56054;50.968;5.816;2023-07-09T09:21:36;100917.44;;;32.60;45.10
68994;BME280;56054;50.968;5.816;2023-07-09T09:24:56;100915.66;;;32.59;45.94
68994;BME280;56054;50.968;5.816;2023-07-09T09:28:05;100912.88;;;32.62;45.91
68994;BME280;56054;50.968;5.816;2023-07-09T09:31:12;100904.50;;;32.75;45.56
68994;BME280;56054;50.968;5.816;2023-07-09T09:34:24;100904.03;;;32.59;44.66
68994;BME280;56054;50.968;5.816;2023-07-09T09:37:31;100894.13;;;32.59;44.81
68994;BME280;56054;50.968;5.816;2023-07-09T09:40:38;100900.47;;;32.91;44.40
68994;BME280;56054;50.968;5.816;2023-07-09T09:43:46;100888.72;;;32.95;44.26
68994;BME280;56054;50.968;5.816;2023-07-09T09:46:57;100887.31;;;32.80;43.72
68994;BME280;56054;50.968;5.816;2023-07-09T09:50:04;100886.81;;;32.99;43.21
68994;BME280;56054;50.968;5.816;2023-07-09T09:53:18;100884.03;;;33.03;43.06
68994;BME280;56054;50.968;5.816;2023-07-09T09:56:29;100883.81;;;33.11;43.68
68994;BME280;56054;50.968;5.816;2023-07-09T09:59:36;100890.28;;;33.37;42.79
68994;BME280;56054;50.968;5.816;2023-07-09T10:02:43;100900.09;;;33.38;42.40
68994;BME280;56054;50.968;5.816;2023-07-09T10:05:55;100908.03;;;33.44;42.13
68994;BME280;56054;50.968;5.816;2023-07-09T10:09:44;100907.34;;;33.36;41.62
68994;BME280;56054;50.968;5.816;2023-07-09T10:12:53;100907.94;;;33.47;41.15
68994;BME280;56054;50.968;5.816;2023-07-09T10:19:24;100910.84;;;33.39;41.06
68994;BME280;56054;50.968;5.816;2023-07-09T10:22:50;100911.88;;;33.66;40.63
68994;BME280;56054;50.968;5.816;2023-07-09T10:26:09;100909.84;;;34.04;39.05
68994;BME280;56054;50.968;5.816;2023-07-09T10:33:08;100885.47;;;34.07;37.73
68994;BME280;56054;50.968;5.816;2023-07-09T10:36:22;100881.66;;;34.15;37.77
68994;BME280;56054;50.968;5.816;2023-07-09T10:39:34;100880.78;;;33.84;36.51
68994;BME280;56054;50.968;5.816;2023-07-09T10:42:51;100878.25;;;34.09;38.20
68994;BME280;56054;50.968;5.816;2023-07-09T10:46:02;100877.41;;;34.06;38.80
68994;BME280;56054;50.968;5.816;2023-07-09T10:49:12;100884.88;;;34.26;39.28
68994;BME280;56054;50.968;5.816;2023-07-09T10:52:32;100885.47;;;34.07;39.14
68994;BME280;56054;50.968;5.816;2023-07-09T10:55:47;100877.84;;;33.92;38.98
68994;BME280;56054;50.968;5.816;2023-07-09T10:59:29;100873.94;;;34.30;38.01
68994;BME280;56054;50.968;5.816;2023-07-09T11:02:38;100864.69;;;34.11;38.30
68994;BME280;56054;50.968;5.816;2023-07-09T11:05:48;100869.84;;;33.89;36.84
68994;BME280;56054;50.968;5.816;2023-07-09T11:08:57;100858.47;;;34.09;34.95
68994;BME280;56054;50.968;5.816;2023-07-09T11:12:12;100868.63;;;33.99;37.05
68994;BME280;56054;50.968;5.816;2023-07-09T11:15:24;100871.34;;;34.27;35.99
68994;BME280;56054;50.968;5.816;2023-07-09T11:18:34;100879.19;;;34.07;36.86
68994;BME280;56054;50.968;5.816;2023-07-09T11:21:57;100885.94;;;34.22;37.66
68994;BME280;56054;50.968;5.816;2023-07-09T11:25:08;100885.84;;;34.23;36.94
68994;BME280;56054;50.968;5.816;2023-07-09T11:28:15;100881.63;;;34.43;37.57
68994;BME280;56054;50.968;5.816;2023-07-09T11:31:35;100880.84;;;34.39;36.67
68994;BME280;56054;50.968;5.816;2023-07-09T11:34:46;100890.41;;;34.21;38.68
68994;BME280;56054;50.968;5.816;2023-07-09T11:37:55;100898.78;;;34.40;39.13
68994;BME280;56054;50.968;5.816;2023-07-09T11:41:02;100886.13;;;34.42;37.23
68994;BME280;56054;50.968;5.816;2023-07-09T11:44:16;100894.41;;;34.09;37.96
68994;BME280;56054;50.968;5.816;2023-07-09T11:47:51;100893.63;;;34.34;38.46
68994;BME280;56054;50.968;5.816;2023-07-09T11:50:58;100886.44;;;34.33;37.88
68994;BME280;56054;50.968;5.816;2023-07-09T11:54:11;100894.63;;;34.30;38.36
68994;BME280;56054;50.968;5.816;2023-07-09T11:57:18;100899.78;;;34.38;38.22
68994;BME280;56054;50.968;5.816;2023-07-09T12:00:27;100882.31;;;34.21;37.87
68994;BME280;56054;50.968;5.816;2023-07-09T12:03:39;100876.19;;;34.16;38.67
68994;BME280;56054;50.968;5.816;2023-07-09T12:06:52;100871.75;;;34.15;38.80
68994;BME280;56054;50.968;5.816;2023-07-09T12:10:04;100851.53;;;34.28;38.52
68994;BME280;56054;50.968;5.816;2023-07-09T12:13:22;100851.28;;;34.09;39.50
68994;BME280;56054;50.968;5.816;2023-07-09T12:16:34;100846.00;;;34.05;39.98
68994;BME280;56054;50.968;5.816;2023-07-09T12:19:42;100844.88;;;33.84;39.77
68994;BME280;56054;50.968;5.816;2023-07-09T12:22:56;100841.34;;;33.82;40.03
68994;BME280;56054;50.968;5.816;2023-07-09T12:26:04;100845.84;;;33.52;40.95
68994;BME280;56054;50.968;5.816;2023-07-09T12:29:11;100838.91;;;33.43;41.89
68994;BME280;56054;50.968;5.816;2023-07-09T12:32:18;100841.53;;;33.15;42.56
68994;BME280;56054;50.968;5.816;2023-07-09T12:35:28;100860.84;;;32.98;44.01
68994;BME280;56054;50.968;5.816;2023-07-09T12:38:42;100853.56;;;32.69;44.06
68994;BME280;56054;50.968;5.816;2023-07-09T12:41:54;100859.91;;;32.66;44.50
68994;BME280;56054;50.968;5.816;2023-07-09T12:45:01;100879.34;;;32.40;46.51
68994;BME280;56054;50.968;5.816;2023-07-09T12:48:10;100883.13;;;31.95;48.68
68994;BME280;56054;50.968;5.816;2023-07-09T12:51:24;100909.56;;;31.72;53.08
68994;BME280;56054;50.968;5.816;2023-07-09T12:54:32;100911.72;;;31.56;58.88
68994;BME280;56054;50.968;5.816;2023-07-09T12:57:39;100932.09;;;31.20;60.59
68994;BME280;56054;50.968;5.816;2023-07-09T13:00:51;100965.91;;;31.30;62.70
68994;BME280;56054;50.968;5.816;2023-07-09T13:04:00;100981.25;;;29.28;69.98
68994;BME280;56054;50.968;5.816;2023-07-09T13:07:30;100980.22;;;29.40;73.31
68994;BME280;56054;50.968;5.816;2023-07-09T13:10:41;100962.75;;;27.28;88.22
68994;BME280;56054;50.968;5.816;2023-07-09T13:13:59;100993.75;;;27.77;79.77
68994;BME280;56054;50.968;5.816;2023-07-09T13:17:08;100979.31;;;28.27;72.59
68994;BME280;56054;50.968;5.816;2023-07-09T13:20:15;100959.97;;;27.65;74.84
68994;BME280;56054;50.968;5.816;2023-07-09T13:23:27;100952.84;;;27.76;76.31
68994;BME280;56054;50.968;5.816;2023-07-09T13:26:34;100980.44;;;27.83;75.98
68994;BME280;56054;50.968;5.816;2023-07-09T13:29:42;100998.88;;;28.35;72.64
68994;BME280;56054;50.968;5.816;2023-07-09T13:32:49;101032.88;;;27.99;74.83
68994;BME280;56054;50.968;5.816;2023-07-09T13:35:56;101025.88;;;27.43;77.94
68994;BME280;56054;50.968;5.816;2023-07-09T13:39:03;101046.34;;;27.07;87.45
68994;BME280;56054;50.968;5.816;2023-07-09T13:42:15;101059.66;;;27.16;90.00
68994;BME280;56054;50.968;5.816;2023-07-09T13:45:25;101081.00;;;27.13;97.04
68994;BME280;56054;50.968;5.816;2023-07-09T13:48:33;101087.22;;;26.90;99.41
68994;BME280;56054;50.968;5.816;2023-07-09T13:51:41;101085.22;;;26.31;95.88
68994;BME280;56054;50.968;5.816;2023-07-09T13:54:48;101095.16;;;26.58;96.57
68994;BME280;56054;50.968;5.816;2023-07-09T13:57:55;101109.38;;;26.74;99.67
68994;BME280;56054;50.968;5.816;2023-07-09T14:01:14;101114.75;;;26.86;97.46
68994;BME280;56054;50.968;5.816;2023-07-09T14:04:22;101098.59;;;26.48;100.00
68994;BME280;56054;50.968;5.816;2023-07-09T14:07:34;101111.00;;;26.37;95.89
68994;BME280;56054;50.968;5.816;2023-07-09T14:10:41;101122.44;;;26.13;98.10
68994;BME280;56054;50.968;5.816;2023-07-09T14:13:48;101140.97;;;25.93;95.23
68994;BME280;56054;50.968;5.816;2023-07-09T14:16:55;101145.50;;;26.08;96.58
68994;BME280;56054;50.968;5.816;2023-07-09T14:20:02;101150.53;;;25.69;96.81
68994;BME280;56054;50.968;5.816;2023-07-09T14:23:15;101167.59;;;25.94;96.99
68994;BME280;56054;50.968;5.816;2023-07-09T14:26:21;101163.03;;;25.78;95.09
68994;BME280;56054;50.968;5.816;2023-07-09T14:29:28;101160.50;;;25.93;94.70
68994;BME280;56054;50.968;5.816;2023-07-09T14:32:37;101162.38;;;26.13;93.13
68994;BME280;56054;50.968;5.816;2023-07-09T14:35:46;101179.34;;;26.24;92.97
68994;BME280;56054;50.968;5.816;2023-07-09T14:38:53;101170.28;;;25.97;96.88
68994;BME280;56054;50.968;5.816;2023-07-09T14:42:00;101149.97;;;26.15;92.40
68994;BME280;56054;50.968;5.816;2023-07-09T14:45:27;101139.06;;;25.81;96.03
68994;BME280;56054;50.968;5.816;2023-07-09T14:48:41;101129.19;;;25.65;94.71
68994;BME280;56054;50.968;5.816;2023-07-09T14:51:49;101124.00;;;25.83;93.22
68994;BME280;56054;50.968;5.816;2023-07-09T14:54:56;101110.84;;;26.00;94.72
68994;BME280;56054;50.968;5.816;2023-07-09T14:58:11;101096.75;;;26.25;93.61
68994;BME280;56054;50.968;5.816;2023-07-09T15:01:20;101093.19;;;26.25;94.28
68994;BME280;56054;50.968;5.816;2023-07-09T15:04:31;101087.88;;;26.31;93.47
68994;BME280;56054;50.968;5.816;2023-07-09T15:07:39;101069.38;;;26.66;92.58
68994;BME280;56054;50.968;5.816;2023-07-09T15:10:47;101061.28;;;26.40;91.49
68994;BME280;56054;50.968;5.816;2023-07-09T15:13:54;101037.31;;;26.37;92.86
68994;BME280;56054;50.968;5.816;2023-07-09T15:17:01;101033.69;;;26.18;91.42
68994;BME280;56054;50.968;5.816;2023-07-09T15:20:16;101013.22;;;26.11;94.18
68994;BME280;56054;50.968;5.816;2023-07-09T15:23:23;101008.84;;;26.29;89.70
68994;BME280;56054;50.968;5.816;2023-07-09T15:26:32;101003.63;;;26.64;92.29
68994;BME280;56054;50.968;5.816;2023-07-09T15:29:38;100992.09;;;26.94;88.05
68994;BME280;56054;50.968;5.816;2023-07-09T15:32:47;101004.53;;;26.89;91.05
68994;BME280;56054;50.968;5.816;2023-07-09T15:35:54;101009.88;;;26.77;90.52
68994;BME280;56054;50.968;5.816;2023-07-09T15:39:01;100984.91;;;26.50;92.24
68994;BME280;56054;50.968;5.816;2023-07-09T15:42:14;100980.56;;;26.86;90.62
68994;BME280;56054;50.968;5.816;2023-07-09T15:45:24;100969.88;;;27.07;89.34
68994;BME280;56054;50.968;5.816;2023-07-09T15:48:34;100967.19;;;27.09;87.88
68994;BME280;56054;50.968;5.816;2023-07-09T15:51:41;100950.34;;;27.07;88.13
68994;BME280;56054;50.968;5.816;2023-07-09T15:54:48;100930.72;;;27.32;86.96
68994;BME280;56054;50.968;5.816;2023-07-09T15:57:55;100921.72;;;27.70;85.37
68994;BME280;56054;50.968;5.816;2023-07-09T16:01:02;100919.22;;;27.24;88.55
68994;BME280;56054;50.968;5.816;2023-07-09T16:04:09;100901.38;;;27.42;88.83
68994;BME280;56054;50.968;5.816;2023-07-09T16:07:16;100918.16;;;27.73;86.98
68994;BME280;56054;50.968;5.816;2023-07-09T16:10:25;100922.53;;;27.82;85.71
68994;BME280;56054;50.968;5.816;2023-07-09T16:13:31;100911.09;;;27.52;86.81
68994;BME280;56054;50.968;5.816;2023-07-09T16:16:38;100927.00;;;27.75;85.60
68994;BME280;56054;50.968;5.816;2023-07-09T16:19:45;100922.75;;;27.25;87.08
68994;BME280;56054;50.968;5.816;2023-07-09T16:22:54;100930.75;;;27.28;85.01
68994;BME280;56054;50.968;5.816;2023-07-09T16:26:02;100936.06;;;27.11;84.91
68994;BME280;56054;50.968;5.816;2023-07-09T16:29:28;100924.44;;;27.50;81.74
68994;BME280;56054;50.968;5.816;2023-07-09T16:32:35;100940.50;;;27.18;82.12
68994;BME280;56054;50.968;5.816;2023-07-09T16:35:42;100944.09;;;27.17;82.43
68994;BME280;56054;50.968;5.816;2023-07-09T16:38:49;100939.53;;;27.62;81.11
68994;BME280;56054;50.968;5.816;2023-07-09T16:41:57;100945.69;;;27.86;80.54
68994;BME280;56054;50.968;5.816;2023-07-09T16:45:05;100953.53;;;28.20;79.09